sensor_id;sensor_type;location;lat;lon;timestamp;P1;durP1;ratioP1;P2;durP2;ratioP2
81336;SDS011;70799;48.000;10.584;2024-01-15T00:00:22;4.88;;;2.03;;
81336;SDS011;70799;48.000;10.584;2024-01-15T00:03:02;8.63;;;3.50;;
81336;SDS011;70799;48.000;10.584;2024-01-15T00:05:38;4.80;;;1.85;;
81336;SDS011;70799;48.000;10.584;2024-01-15T00:08:14;3.75;;;1.95;;
81336;SDS011;70799;48.000;10.584;2024-01-15T00:10:50;8.55;;;3.67;;
81336;SDS011;70799;48.000;10.584;2024-01-15T00:13:26;5.18;;;1.92;;
81336;SDS011;70799;48.000;10.584;2024-01-15T00:16:03;8.68;;;3.45;;
81336;SDS011;70799;48.000;10.584;2024-01-15T00:18:39;6.35;;;3.08;;
81336;SDS011;70799;48.000;10.584;2024-01-15T00:21:16;9.50;;;3.33;;
81336;SDS011;70799;48.000;10.584;2024-01-15T00:23:52;7.70;;;3.42;;
81336;SDS011;70799;48.000;10.584;2024-01-15T00:26:28;9.68;;;3.53;;
81336;SDS011;70799;48.000;10.584;2024-01-15T00:29:04;7.70;;;2.58;;
81336;SDS011;70799;48.000;10.584;2024-01-15T00:31:41;7.43;;;3.00;;
81336;SDS011;70799;48.000;10.584;2024-01-15T00:34:18;8.38;;;2.65;;
81336;SDS011;70799;48.000;10.584;2024-01-15T00:36:54;9.32;;;3.47;;
81336;SDS011;70799;48.000;10.584;2024-01-15T00:39:30;8.18;;;2.63;;
81336;SDS011;70799;48.000;10.584;2024-01-15T00:42:06;9.43;;;3.70;;
81336;SDS011;70799;48.000;10.584;2024-01-15T00:44:42;6.05;;;2.17;;
81336;SDS011;70799;48.000;10.584;2024-01-15T00:47:18;8.93;;;3.60;;
81336;SDS011;70799;48.000;10.584;2024-01-15T00:52:30;8.75;;;4.30;;
81336;SDS011;70799;48.000;10.584;2024-01-15T00:55:07;8.32;;;3.58;;
81336;SDS011;70799;48.000;10.584;2024-01-15T00:57:43;9.40;;;4.50;;
81336;SDS011;70799;48.000;10.584;2024-01-15T01:00:19;10.00;;;4.03;;
81336;SDS011;70799;48.000;10.584;2024-01-15T01:02:55;12.57;;;4.80;;
81336;SDS011;70799;48.000;10.584;2024-01-15T01:05:37;12.60;;;4.60;;
81336;SDS011;70799;48.000;10.584;2024-01-15T01:08:13;11.05;;;4.18;;
81336;SDS011;70799;48.000;10.584;2024-01-15T01:10:49;13.80;;;5.68;;
81336;SDS011;70799;48.000;10.584;2024-01-15T01:13:25;11.95;;;5.28;;
81336;SDS011;70799;48.000;10.584;2024-01-15T01:16:04;10.00;;;4.85;;
81336;SDS011;70799;48.000;10.584;2024-01-15T01:18:40;12.27;;;4.70;;
81336;SDS011;70799;48.000;10.584;2024-01-15T01:21:16;9.73;;;3.90;;
81336;SDS011;70799;48.000;10.584;2024-01-15T01:23:52;12.05;;;4.75;;
81336;SDS011;70799;48.000;10.584;2024-01-15T01:26:28;11.57;;;5.85;;
81336;SDS011;70799;48.000;10.584;2024-01-15T01:29:05;12.52;;;5.68;;
81336;SDS011;70799;48.000;10.584;2024-01-15T01:31:44;12.18;;;5.88;;
81336;SDS011;70799;48.000;10.584;2024-01-15T01:34:21;12.10;;;5.45;;
81336;SDS011;70799;48.000;10.584;2024-01-15T01:36:57;12.90;;;6.05;;
81336;SDS011;70799;48.000;10.584;2024-01-15T01:39:33;15.43;;;5.82;;
81336;SDS011;70799;48.000;10.584;2024-01-15T01:42:09;16.33;;;6.53;;
81336;SDS011;70799;48.000;10.584;2024-01-15T01:47:21;13.90;;;6.47;;
81336;SDS011;70799;48.000;10.584;2024-01-15T01:49:58;17.02;;;6.45;;
81336;SDS011;70799;48.000;10.584;2024-01-15T01:55:11;15.80;;;6.35;;
81336;SDS011;70799;48.000;10.584;2024-01-15T01:57:48;17.63;;;5.95;;
81336;SDS011;70799;48.000;10.584;2024-01-15T02:00:24;14.13;;;6.43;;
81336;SDS011;70799;48.000;10.584;2024-01-15T02:03:00;13.15;;;4.50;;
81336;SDS011;70799;48.000;10.584;2024-01-15T02:05:39;11.80;;;5.07;;
81336;SDS011;70799;48.000;10.584;2024-01-15T02:08:15;17.20;;;7.60;;
81336;SDS011;70799;48.000;10.584;2024-01-15T02:10:51;16.88;;;5.63;;
81336;SDS011;70799;48.000;10.584;2024-01-15T02:13:27;16.00;;;6.38;;
81336;SDS011;70799;48.000;10.584;2024-01-15T02:16:03;14.05;;;6.68;;
81336;SDS011;70799;48.000;10.584;2024-01-15T02:18:43;19.52;;;6.90;;
81336;SDS011;70799;48.000;10.584;2024-01-15T02:21:20;10.88;;;4.88;;
81336;SDS011;70799;48.000;10.584;2024-01-15T02:23:58;15.68;;;7.07;;
81336;SDS011;70799;48.000;10.584;2024-01-15T02:26:34;13.43;;;6.10;;
81336;SDS011;70799;48.000;10.584;2024-01-15T02:29:10;12.27;;;5.10;;
81336;SDS011;70799;48.000;10.584;2024-01-15T02:31:47;13.93;;;5.30;;
81336;SDS011;70799;48.000;10.584;2024-01-15T02:34:23;14.48;;;5.68;;
81336;SDS011;70799;48.000;10.584;2024-01-15T02:36:59;15.10;;;5.68;;
81336;SDS011;70799;48.000;10.584;2024-01-15T02:39:35;13.00;;;5.60;;
81336;SDS011;70799;48.000;10.584;2024-01-15T02:42:10;11.85;;;5.20;;
81336;SDS011;70799;48.000;10.584;2024-01-15T02:44:46;12.88;;;5.15;;
81336;SDS011;70799;48.000;10.584;2024-01-15T02:49:59;9.35;;;3.60;;
81336;SDS011;70799;48.000;10.584;2024-01-15T02:52:38;9.32;;;3.33;;
81336;SDS011;70799;48.000;10.584;2024-01-15T02:55:14;13.00;;;4.68;;
81336;SDS011;70799;48.000;10.584;2024-01-15T02:57:50;14.10;;;5.00;;
81336;SDS011;70799;48.000;10.584;2024-01-15T03:00:26;13.77;;;5.15;;
81336;SDS011;70799;48.000;10.584;2024-01-15T03:03:02;12.52;;;4.68;;
81336;SDS011;70799;48.000;10.584;2024-01-15T03:05:38;13.15;;;4.45;;
81336;SDS011;70799;48.000;10.584;2024-01-15T03:08:14;11.77;;;4.47;;
81336;SDS011;70799;48.000;10.584;2024-01-15T03:10:50;11.60;;;4.50;;
81336;SDS011;70799;48.000;10.584;2024-01-15T03:13:26;13.63;;;4.55;;
81336;SDS011;70799;48.000;10.584;2024-01-15T03:16:03;11.48;;;4.85;;
81336;SDS011;70799;48.000;10.584;2024-01-15T03:18:40;11.13;;;5.15;;
81336;SDS011;70799;48.000;10.584;2024-01-15T03:21:16;13.18;;;5.13;;
81336;SDS011;70799;48.000;10.584;2024-01-15T03:23:52;11.27;;;4.85;;
81336;SDS011;70799;48.000;10.584;2024-01-15T03:26:27;12.57;;;4.95;;
81336;SDS011;70799;48.000;10.584;2024-01-15T03:29:03;13.07;;;4.70;;
81336;SDS011;70799;48.000;10.584;2024-01-15T03:31:39;9.57;;;3.95;;
81336;SDS011;70799;48.000;10.584;2024-01-15T03:34:15;16.45;;;5.45;;
81336;SDS011;70799;48.000;10.584;2024-01-15T03:36:52;12.20;;;4.85;;
81336;SDS011;70799;48.000;10.584;2024-01-15T03:39:28;11.38;;;3.85;;
81336;SDS011;70799;48.000;10.584;2024-01-15T03:42:04;14.65;;;6.30;;
81336;SDS011;70799;48.000;10.584;2024-01-15T03:44:41;9.27;;;3.42;;
81336;SDS011;70799;48.000;10.584;2024-01-15T03:47:16;11.43;;;4.60;;
81336;SDS011;70799;48.000;10.584;2024-01-15T03:49:52;12.00;;;5.45;;
81336;SDS011;70799;48.000;10.584;2024-01-15T03:52:28;10.88;;;5.00;;
81336;SDS011;70799;48.000;10.584;2024-01-15T03:55:04;13.25;;;5.40;;
81336;SDS011;70799;48.000;10.584;2024-01-15T03:57:41;8.70;;;3.22;;
81336;SDS011;70799;48.000;10.584;2024-01-15T04:00:17;12.70;;;4.07;;
81336;SDS011;70799;48.000;10.584;2024-01-15T04:02:53;13.25;;;4.75;;
81336;SDS011;70799;48.000;10.584;2024-01-15T04:05:29;12.63;;;4.72;;
81336;SDS011;70799;48.000;10.584;2024-01-15T04:08:05;14.98;;;5.55;;
81336;SDS011;70799;48.000;10.584;2024-01-15T04:10:41;13.85;;;5.28;;
81336;SDS011;70799;48.000;10.584;2024-01-15T04:13:17;10.35;;;3.60;;
81336;SDS011;70799;48.000;10.584;2024-01-15T04:15:53;14.13;;;5.40;;
81336;SDS011;70799;48.000;10.584;2024-01-15T04:18:29;8.93;;;2.95;;
81336;SDS011;70799;48.000;10.584;2024-01-15T04:21:06;13.35;;;5.30;;
81336;SDS011;70799;48.000;10.584;2024-01-15T04:23:42;15.38;;;5.38;;
81336;SDS011;70799;48.000;10.584;2024-01-15T04:26:18;12.00;;;4.60;;
81336;SDS011;70799;48.000;10.584;2024-01-15T04:28:54;14.18;;;4.60;;
81336;SDS011;70799;48.000;10.584;2024-01-15T04:31:33;11.68;;;4.60;;
81336;SDS011;70799;48.000;10.584;2024-01-15T04:34:09;11.65;;;4.22;;
81336;SDS011;70799;48.000;10.584;2024-01-15T04:36:45;12.98;;;5.20;;
81336;SDS011;70799;48.000;10.584;2024-01-15T04:39:21;13.00;;;4.93;;
81336;SDS011;70799;48.000;10.584;2024-01-15T04:41:58;11.25;;;4.82;;
81336;SDS011;70799;48.000;10.584;2024-01-15T04:44:34;12.85;;;5.38;;
81336;SDS011;70799;48.000;10.584;2024-01-15T04:47:10;12.63;;;5.43;;
81336;SDS011;70799;48.000;10.584;2024-01-15T04:49:46;10.55;;;4.85;;
81336;SDS011;70799;48.000;10.584;2024-01-15T04:52:22;11.63;;;4.40;;
81336;SDS011;70799;48.000;10.584;2024-01-15T04:54:58;10.05;;;4.00;;
81336;SDS011;70799;48.000;10.584;2024-01-15T04:57:35;12.23;;;4.68;;
81336;SDS011;70799;48.000;10.584;2024-01-15T05:00:11;11.18;;;4.47;;
81336;SDS011;70799;48.000;10.584;2024-01-15T05:05:23;7.50;;;2.92;;
81336;SDS011;70799;48.000;10.584;2024-01-15T05:08:00;4.35;;;2.33;;
81336;SDS011;70799;48.000;10.584;2024-01-15T05:10:39;9.90;;;4.10;;
81336;SDS011;70799;48.000;10.584;2024-01-15T05:13:15;8.30;;;3.33;;
81336;SDS011;70799;48.000;10.584;2024-01-15T05:15:51;11.10;;;4.03;;
81336;SDS011;70799;48.000;10.584;2024-01-15T05:18:27;5.82;;;1.85;;
81336;SDS011;70799;48.000;10.584;2024-01-15T05:21:04;8.02;;;2.63;;
81336;SDS011;70799;48.000;10.584;2024-01-15T05:23:40;8.50;;;3.53;;
81336;SDS011;70799;48.000;10.584;2024-01-15T05:26:16;7.57;;;3.33;;
81336;SDS011;70799;48.000;10.584;2024-01-15T05:28:53;9.27;;;3.78;;
81336;SDS011;70799;48.000;10.584;2024-01-15T05:31:29;8.95;;;3.67;;
81336;SDS011;70799;48.000;10.584;2024-01-15T05:34:05;9.32;;;2.83;;
81336;SDS011;70799;48.000;10.584;2024-01-15T05:36:42;8.27;;;3.83;;
81336;SDS011;70799;48.000;10.584;2024-01-15T05:39:21;7.43;;;3.17;;
81336;SDS011;70799;48.000;10.584;2024-01-15T05:41:58;10.18;;;3.85;;
81336;SDS011;70799;48.000;10.584;2024-01-15T05:44:34;9.10;;;4.15;;
81336;SDS011;70799;48.000;10.584;2024-01-15T05:47:11;9.20;;;3.75;;
81336;SDS011;70799;48.000;10.584;2024-01-15T05:49:47;9.68;;;3.30;;
81336;SDS011;70799;48.000;10.584;2024-01-15T05:52:23;6.32;;;2.22;;
81336;SDS011;70799;48.000;10.584;2024-01-15T05:54:59;7.50;;;3.20;;
81336;SDS011;70799;48.000;10.584;2024-01-15T05:57:39;3.95;;;1.70;;
81336;SDS011;70799;48.000;10.584;2024-01-15T06:00:15;8.63;;;3.20;;
81336;SDS011;70799;48.000;10.584;2024-01-15T06:02:51;6.88;;;3.67;;
81336;SDS011;70799;48.000;10.584;2024-01-15T06:05:28;9.95;;;3.97;;
81336;SDS011;70799;48.000;10.584;2024-01-15T06:08:04;7.47;;;3.10;;
81336;SDS011;70799;48.000;10.584;2024-01-15T06:10:40;6.88;;;2.95;;
81336;SDS011;70799;48.000;10.584;2024-01-15T06:13:16;9.10;;;3.13;;
81336;SDS011;70799;48.000;10.584;2024-01-15T06:15:52;7.97;;;2.55;;
81336;SDS011;70799;48.000;10.584;2024-01-15T06:18:28;8.30;;;2.90;;
81336;SDS011;70799;48.000;10.584;2024-01-15T06:21:04;6.32;;;3.17;;
81336;SDS011;70799;48.000;10.584;2024-01-15T06:23:42;9.63;;;3.55;;
81336;SDS011;70799;48.000;10.584;2024-01-15T06:26:18;6.65;;;2.92;;
81336;SDS011;70799;48.000;10.584;2024-01-15T06:28:55;3.15;;;1.20;;
81336;SDS011;70799;48.000;10.584;2024-01-15T06:31:32;9.70;;;3.28;;
81336;SDS011;70799;48.000;10.584;2024-01-15T06:34:08;8.30;;;2.90;;
81336;SDS011;70799;48.000;10.584;2024-01-15T06:36:45;7.80;;;3.00;;
81336;SDS011;70799;48.000;10.584;2024-01-15T06:39:21;7.95;;;2.95;;
81336;SDS011;70799;48.000;10.584;2024-01-15T06:41:57;8.07;;;3.80;;
81336;SDS011;70799;48.000;10.584;2024-01-15T06:44:34;5.57;;;2.47;;
81336;SDS011;70799;48.000;10.584;2024-01-15T06:47:10;9.48;;;3.65;;
81336;SDS011;70799;48.000;10.584;2024-01-15T06:49:46;8.70;;;3.03;;
81336;SDS011;70799;48.000;10.584;2024-01-15T06:52:24;5.30;;;1.85;;
81336;SDS011;70799;48.000;10.584;2024-01-15T06:55:02;6.57;;;2.80;;
81336;SDS011;70799;48.000;10.584;2024-01-15T06:57:39;5.95;;;2.67;;
81336;SDS011;70799;48.000;10.584;2024-01-15T07:00:15;4.97;;;1.77;;
81336;SDS011;70799;48.000;10.584;2024-01-15T07:05:27;7.25;;;2.75;;
81336;SDS011;70799;48.000;10.584;2024-01-15T07:08:04;9.65;;;3.25;;
81336;SDS011;70799;48.000;10.584;2024-01-15T07:10:40;5.63;;;2.53;;
81336;SDS011;70799;48.000;10.584;2024-01-15T07:13:16;8.15;;;3.90;;
81336;SDS011;70799;48.000;10.584;2024-01-15T07:15:52;7.82;;;2.88;;
81336;SDS011;70799;48.000;10.584;2024-01-15T07:18:28;8.50;;;3.67;;
81336;SDS011;70799;48.000;10.584;2024-01-15T07:21:04;10.98;;;4.28;;
81336;SDS011;70799;48.000;10.584;2024-01-15T07:23:40;9.68;;;3.55;;
81336;SDS011;70799;48.000;10.584;2024-01-15T07:26:16;7.60;;;3.15;;
81336;SDS011;70799;48.000;10.584;2024-01-15T07:28:52;7.93;;;3.22;;
81336;SDS011;70799;48.000;10.584;2024-01-15T07:31:28;8.90;;;2.92;;
81336;SDS011;70799;48.000;10.584;2024-01-15T07:34:05;8.80;;;3.42;;
81336;SDS011;70799;48.000;10.584;2024-01-15T07:36:41;10.75;;;3.60;;
81336;SDS011;70799;48.000;10.584;2024-01-15T07:39:17;9.73;;;3.60;;
81336;SDS011;70799;48.000;10.584;2024-01-15T07:41:54;9.63;;;3.80;;
81336;SDS011;70799;48.000;10.584;2024-01-15T07:44:35;6.53;;;3.03;;
81336;SDS011;70799;48.000;10.584;2024-01-15T07:47:11;9.20;;;3.45;;
81336;SDS011;70799;48.000;10.584;2024-01-15T07:49:46;10.60;;;3.95;;
81336;SDS011;70799;48.000;10.584;2024-01-15T07:52:22;11.23;;;4.20;;
81336;SDS011;70799;48.000;10.584;2024-01-15T07:54:58;9.52;;;3.35;;
81336;SDS011;70799;48.000;10.584;2024-01-15T07:57:36;11.52;;;3.70;;
81336;SDS011;70799;48.000;10.584;2024-01-15T08:00:12;10.95;;;3.78;;
81336;SDS011;70799;48.000;10.584;2024-01-15T08:02:48;8.63;;;3.38;;
81336;SDS011;70799;48.000;10.584;2024-01-15T08:05:25;10.93;;;3.58;;
81336;SDS011;70799;48.000;10.584;2024-01-15T08:08:00;9.18;;;4.13;;
81336;SDS011;70799;48.000;10.584;2024-01-15T08:10:36;11.95;;;4.03;;
81336;SDS011;70799;48.000;10.584;2024-01-15T08:13:13;9.57;;;4.18;;
81336;SDS011;70799;48.000;10.584;2024-01-15T08:15:51;10.85;;;3.85;;
81336;SDS011;70799;48.000;10.584;2024-01-15T08:18:27;9.63;;;4.15;;
81336;SDS011;70799;48.000;10.584;2024-01-15T08:21:03;8.95;;;3.65;;
81336;SDS011;70799;48.000;10.584;2024-01-15T08:23:39;10.23;;;3.75;;
81336;SDS011;70799;48.000;10.584;2024-01-15T08:26:15;7.65;;;3.90;;
81336;SDS011;70799;48.000;10.584;2024-01-15T08:28:51;8.68;;;3.67;;
81336;SDS011;70799;48.000;10.584;2024-01-15T08:31:27;9.68;;;3.72;;
81336;SDS011;70799;48.000;10.584;2024-01-15T08:34:04;10.43;;;3.53;;
81336;SDS011;70799;48.000;10.584;2024-01-15T08:39:16;8.63;;;3.25;;
81336;SDS011;70799;48.000;10.584;2024-01-15T08:41:53;8.15;;;3.17;;
81336;SDS011;70799;48.000;10.584;2024-01-15T08:44:29;9.90;;;3.80;;
81336;SDS011;70799;48.000;10.584;2024-01-15T08:47:04;8.13;;;3.45;;
81336;SDS011;70799;48.000;10.584;2024-01-15T08:49:41;9.02;;;3.50;;
81336;SDS011;70799;48.000;10.584;2024-01-15T08:52:18;9.57;;;4.30;;
81336;SDS011;70799;48.000;10.584;2024-01-15T08:54:55;10.48;;;3.58;;
81336;SDS011;70799;48.000;10.584;2024-01-15T08:57:35;6.53;;;2.75;;
81336;SDS011;70799;48.000;10.584;2024-01-15T09:00:12;8.77;;;3.47;;
81336;SDS011;70799;48.000;10.584;2024-01-15T09:05:24;7.05;;;2.55;;
81336;SDS011;70799;48.000;10.584;2024-01-15T09:08:04;6.55;;;2.70;;
81336;SDS011;70799;48.000;10.584;2024-01-15T09:10:40;7.82;;;3.67;;
81336;SDS011;70799;48.000;10.584;2024-01-15T09:13:16;6.78;;;2.80;;
81336;SDS011;70799;48.000;10.584;2024-01-15T09:15:52;9.25;;;3.80;;
81336;SDS011;70799;48.000;10.584;2024-01-15T09:23:59;11.05;;;3.60;;
81336;SDS011;70799;48.000;10.584;2024-01-15T09:26:35;7.35;;;2.45;;
81336;SDS011;70799;48.000;10.584;2024-01-15T09:29:12;5.65;;;2.63;;
81336;SDS011;70799;48.000;10.584;2024-01-15T09:31:50;7.45;;;2.88;;
81336;SDS011;70799;48.000;10.584;2024-01-15T09:34:26;8.02;;;3.20;;
81336;SDS011;70799;48.000;10.584;2024-01-15T09:37:02;6.72;;;2.97;;
81336;SDS011;70799;48.000;10.584;2024-01-15T09:39:38;5.63;;;1.92;;
81336;SDS011;70799;48.000;10.584;2024-01-15T09:42:14;7.25;;;2.97;;
81336;SDS011;70799;48.000;10.584;2024-01-15T09:44:53;6.97;;;3.15;;
81336;SDS011;70799;48.000;10.584;2024-01-15T09:47:29;7.93;;;2.97;;
81336;SDS011;70799;48.000;10.584;2024-01-15T09:50:05;7.85;;;3.47;;
81336;SDS011;70799;48.000;10.584;2024-01-15T09:52:42;5.72;;;2.00;;
81336;SDS011;70799;48.000;10.584;2024-01-15T09:55:19;6.40;;;2.80;;
81336;SDS011;70799;48.000;10.584;2024-01-15T09:57:55;9.05;;;2.40;;
81336;SDS011;70799;48.000;10.584;2024-01-15T10:00:33;5.32;;;2.25;;
81336;SDS011;70799;48.000;10.584;2024-01-15T10:03:11;7.15;;;2.92;;
81336;SDS011;70799;48.000;10.584;2024-01-15T10:11:00;6.53;;;2.33;;
81336;SDS011;70799;48.000;10.584;2024-01-15T10:13:36;7.93;;;2.47;;
81336;SDS011;70799;48.000;10.584;2024-01-15T10:16:13;4.30;;;1.55;;
81336;SDS011;70799;48.000;10.584;2024-01-15T10:18:49;8.23;;;2.80;;
81336;SDS011;70799;48.000;10.584;2024-01-15T10:21:26;9.68;;;2.38;;
81336;SDS011;70799;48.000;10.584;2024-01-15T10:24:03;6.85;;;2.60;;
81336;SDS011;70799;48.000;10.584;2024-01-15T10:26:39;7.50;;;3.38;;
81336;SDS011;70799;48.000;10.584;2024-01-15T10:29:17;5.60;;;2.28;;
81336;SDS011;70799;48.000;10.584;2024-01-15T10:34:30;5.82;;;2.42;;
81336;SDS011;70799;48.000;10.584;2024-01-15T10:37:09;6.25;;;2.72;;
81336;SDS011;70799;48.000;10.584;2024-01-15T10:39:46;6.43;;;2.47;;
81336;SDS011;70799;48.000;10.584;2024-01-15T10:44:59;6.43;;;2.00;;
81336;SDS011;70799;48.000;10.584;2024-01-15T10:47:35;3.85;;;1.63;;
81336;SDS011;70799;48.000;10.584;2024-01-15T10:52:48;6.15;;;2.25;;
81336;SDS011;70799;48.000;10.584;2024-01-15T10:55:24;7.35;;;2.72;;
81336;SDS011;70799;48.000;10.584;2024-01-15T10:58:00;7.85;;;2.40;;
81336;SDS011;70799;48.000;10.584;2024-01-15T11:00:36;5.22;;;1.83;;
81336;SDS011;70799;48.000;10.584;2024-01-15T11:03:13;7.78;;;2.63;;
81336;SDS011;70799;48.000;10.584;2024-01-15T11:05:49;5.53;;;2.03;;
81336;SDS011;70799;48.000;10.584;2024-01-15T11:08:25;5.80;;;2.10;;
81336;SDS011;70799;48.000;10.584;2024-01-15T11:11:02;5.70;;;2.20;;
81336;SDS011;70799;48.000;10.584;2024-01-15T11:13:39;4.15;;;1.65;;
81336;SDS011;70799;48.000;10.584;2024-01-15T11:16:16;4.05;;;1.52;;
81336;SDS011;70799;48.000;10.584;2024-01-15T11:21:34;7.20;;;1.92;;
81336;SDS011;70799;48.000;10.584;2024-01-15T11:27:45;5.57;;;1.83;;
81336;SDS011;70799;48.000;10.584;2024-01-15T11:30:24;5.45;;;2.05;;
81336;SDS011;70799;48.000;10.584;2024-01-15T11:33:02;6.82;;;2.38;;
81336;SDS011;70799;48.000;10.584;2024-01-15T11:35:49;5.20;;;2.35;;
81336;SDS011;70799;48.000;10.584;2024-01-15T11:38:28;6.53;;;2.38;;
81336;SDS011;70799;48.000;10.584;2024-01-15T11:41:13;6.65;;;2.53;;
81336;SDS011;70799;48.000;10.584;2024-01-15T11:43:49;9.35;;;2.90;;
81336;SDS011;70799;48.000;10.584;2024-01-15T11:46:26;5.13;;;2.38;;
81336;SDS011;70799;48.000;10.584;2024-01-15T11:49:04;7.47;;;2.95;;
81336;SDS011;70799;48.000;10.584;2024-01-15T11:51:41;7.43;;;2.13;;
81336;SDS011;70799;48.000;10.584;2024-01-15T11:54:17;5.60;;;2.35;;
81336;SDS011;70799;48.000;10.584;2024-01-15T11:56:53;4.72;;;1.77;;
81336;SDS011;70799;48.000;10.584;2024-01-15T12:02:05;9.13;;;3.10;;
81336;SDS011;70799;48.000;10.584;2024-01-15T12:04:43;9.32;;;3.38;;
81336;SDS011;70799;48.000;10.584;2024-01-15T12:07:19;8.60;;;4.07;;
81336;SDS011;70799;48.000;10.584;2024-01-15T12:09:55;5.93;;;2.38;;
81336;SDS011;70799;48.000;10.584;2024-01-15T12:15:35;6.10;;;2.22;;
81336;SDS011;70799;48.000;10.584;2024-01-15T12:18:14;5.80;;;2.58;;
81336;SDS011;70799;48.000;10.584;2024-01-15T12:20:53;6.10;;;2.40;;
81336;SDS011;70799;48.000;10.584;2024-01-15T12:23:30;6.28;;;2.28;;
81336;SDS011;70799;48.000;10.584;2024-01-15T12:26:06;6.30;;;2.40;;
81336;SDS011;70799;48.000;10.584;2024-01-15T12:28:42;5.53;;;2.33;;
81336;SDS011;70799;48.000;10.584;2024-01-15T12:31:19;6.82;;;2.42;;
81336;SDS011;70799;48.000;10.584;2024-01-15T12:36:33;7.05;;;2.33;;
81336;SDS011;70799;48.000;10.584;2024-01-15T12:39:12;6.60;;;3.00;;
81336;SDS011;70799;48.000;10.584;2024-01-15T12:41:48;6.72;;;2.55;;
81336;SDS011;70799;48.000;10.584;2024-01-15T12:44:24;4.57;;;2.33;;
81336;SDS011;70799;48.000;10.584;2024-01-15T12:46:58;5.47;;;2.55;;
81336;SDS011;70799;48.000;10.584;2024-01-15T12:49:36;4.30;;;1.80;;
81336;SDS011;70799;48.000;10.584;2024-01-15T12:52:12;5.78;;;1.92;;
81336;SDS011;70799;48.000;10.584;2024-01-15T12:54:48;5.90;;;2.47;;
81336;SDS011;70799;48.000;10.584;2024-01-15T12:57:24;5.30;;;2.13;;
81336;SDS011;70799;48.000;10.584;2024-01-15T13:00:00;5.25;;;2.00;;
81336;SDS011;70799;48.000;10.584;2024-01-15T13:02:45;5.03;;;1.83;;
81336;SDS011;70799;48.000;10.584;2024-01-15T13:07:58;5.03;;;2.15;;
81336;SDS011;70799;48.000;10.584;2024-01-15T13:10:35;4.00;;;1.55;;
81336;SDS011;70799;48.000;10.584;2024-01-15T13:13:14;4.93;;;1.98;;
81336;SDS011;70799;48.000;10.584;2024-01-15T13:15:50;5.05;;;1.77;;
81336;SDS011;70799;48.000;10.584;2024-01-15T13:18:26;4.57;;;1.60;;
81336;SDS011;70799;48.000;10.584;2024-01-15T13:21:03;3.90;;;1.83;;
81336;SDS011;70799;48.000;10.584;2024-01-15T13:23:39;3.45;;;1.55;;
81336;SDS011;70799;48.000;10.584;2024-01-15T13:26:15;4.50;;;1.35;;
81336;SDS011;70799;48.000;10.584;2024-01-15T13:28:52;5.72;;;1.60;;
81336;SDS011;70799;48.000;10.584;2024-01-15T13:31:28;3.83;;;1.15;;
81336;SDS011;70799;48.000;10.584;2024-01-15T13:34:05;4.57;;;1.67;;
81336;SDS011;70799;48.000;10.584;2024-01-15T13:36:42;6.00;;;2.28;;
81336;SDS011;70799;48.000;10.584;2024-01-15T13:41:55;5.93;;;2.25;;
81336;SDS011;70799;48.000;10.584;2024-01-15T13:44:32;7.15;;;2.60;;
81336;SDS011;70799;48.000;10.584;2024-01-15T13:47:08;4.97;;;2.33;;
81336;SDS011;70799;48.000;10.584;2024-01-15T13:49:44;5.85;;;2.85;;
81336;SDS011;70799;48.000;10.584;2024-01-15T13:52:21;5.45;;;2.60;;
81336;SDS011;70799;48.000;10.584;2024-01-15T13:54:59;4.50;;;2.05;;
81336;SDS011;70799;48.000;10.584;2024-01-15T14:02:50;5.53;;;2.88;;
81336;SDS011;70799;48.000;10.584;2024-01-15T14:05:26;3.75;;;1.52;;
81336;SDS011;70799;48.000;10.584;2024-01-15T14:08:02;3.53;;;1.48;;
81336;SDS011;70799;48.000;10.584;2024-01-15T14:10:39;4.68;;;1.50;;
81336;SDS011;70799;48.000;10.584;2024-01-15T14:13:16;6.60;;;2.72;;
81336;SDS011;70799;48.000;10.584;2024-01-15T14:15:52;6.82;;;2.65;;
81336;SDS011;70799;48.000;10.584;2024-01-15T14:18:28;5.13;;;2.05;;
81336;SDS011;70799;48.000;10.584;2024-01-15T14:21:06;7.07;;;2.00;;
81336;SDS011;70799;48.000;10.584;2024-01-15T14:23:42;6.15;;;2.67;;
81336;SDS011;70799;48.000;10.584;2024-01-15T14:26:18;3.35;;;1.67;;
81336;SDS011;70799;48.000;10.584;2024-01-15T14:28:54;5.10;;;2.50;;
81336;SDS011;70799;48.000;10.584;2024-01-15T14:31:31;5.75;;;1.73;;
81336;SDS011;70799;48.000;10.584;2024-01-15T14:34:07;5.70;;;2.17;;
81336;SDS011;70799;48.000;10.584;2024-01-15T14:36:43;5.80;;;2.28;;
81336;SDS011;70799;48.000;10.584;2024-01-15T14:39:21;4.97;;;1.83;;
81336;SDS011;70799;48.000;10.584;2024-01-15T14:42:01;4.55;;;1.77;;
81336;SDS011;70799;48.000;10.584;2024-01-15T14:44:38;4.78;;;2.00;;
81336;SDS011;70799;48.000;10.584;2024-01-15T14:47:14;5.65;;;1.60;;
81336;SDS011;70799;48.000;10.584;2024-01-15T14:49:53;5.30;;;2.10;;
81336;SDS011;70799;48.000;10.584;2024-01-15T14:52:29;5.47;;;2.50;;
81336;SDS011;70799;48.000;10.584;2024-01-15T14:55:05;5.28;;;2.15;;
81336;SDS011;70799;48.000;10.584;2024-01-15T14:57:42;4.95;;;2.05;;
81336;SDS011;70799;48.000;10.584;2024-01-15T15:00:18;6.32;;;2.38;;
81336;SDS011;70799;48.000;10.584;2024-01-15T15:02:54;8.73;;;4.00;;
81336;SDS011;70799;48.000;10.584;2024-01-15T15:05:32;5.72;;;2.40;;
81336;SDS011;70799;48.000;10.584;2024-01-15T15:08:08;5.13;;;2.42;;
81336;SDS011;70799;48.000;10.584;2024-01-15T15:10:44;6.45;;;2.42;;
81336;SDS011;70799;48.000;10.584;2024-01-15T15:13:20;4.03;;;2.33;;
81336;SDS011;70799;48.000;10.584;2024-01-15T15:16:15;6.13;;;2.25;;
81336;SDS011;70799;48.000;10.584;2024-01-15T15:18:51;5.32;;;2.33;;
81336;SDS011;70799;48.000;10.584;2024-01-15T15:21:27;5.75;;;1.92;;
81336;SDS011;70799;48.000;10.584;2024-01-15T15:24:03;5.50;;;2.75;;
81336;SDS011;70799;48.000;10.584;2024-01-15T15:26:39;6.40;;;2.58;;
81336;SDS011;70799;48.000;10.584;2024-01-15T15:29:15;5.38;;;2.15;;
81336;SDS011;70799;48.000;10.584;2024-01-15T15:34:27;5.85;;;2.22;;
81336;SDS011;70799;48.000;10.584;2024-01-15T15:39:40;5.40;;;2.35;;
81336;SDS011;70799;48.000;10.584;2024-01-15T15:42:16;5.35;;;2.13;;
81336;SDS011;70799;48.000;10.584;2024-01-15T15:44:51;5.57;;;2.35;;
81336;SDS011;70799;48.000;10.584;2024-01-15T15:47:34;6.63;;;2.45;;
81336;SDS011;70799;48.000;10.584;2024-01-15T15:50:11;3.90;;;1.52;;
81336;SDS011;70799;48.000;10.584;2024-01-15T15:52:47;6.25;;;2.55;;
81336;SDS011;70799;48.000;10.584;2024-01-15T15:55:23;6.35;;;2.50;;
81336;SDS011;70799;48.000;10.584;2024-01-15T15:57:59;6.25;;;2.55;;
81336;SDS011;70799;48.000;10.584;2024-01-15T16:00:35;6.82;;;2.78;;
81336;SDS011;70799;48.000;10.584;2024-01-15T16:03:11;7.97;;;3.47;;
81336;SDS011;70799;48.000;10.584;2024-01-15T16:08:24;8.50;;;2.90;;
81336;SDS011;70799;48.000;10.584;2024-01-15T16:11:00;7.82;;;2.92;;
81336;SDS011;70799;48.000;10.584;2024-01-15T16:13:37;6.05;;;2.40;;
81336;SDS011;70799;48.000;10.584;2024-01-15T16:16:13;7.82;;;3.35;;
81336;SDS011;70799;48.000;10.584;2024-01-15T16:19:09;7.03;;;2.90;;
81336;SDS011;70799;48.000;10.584;2024-01-15T16:25:03;4.43;;;2.00;;
81336;SDS011;70799;48.000;10.584;2024-01-15T16:27:40;7.63;;;2.80;;
81336;SDS011;70799;48.000;10.584;2024-01-15T16:30:16;8.73;;;3.35;;
81336;SDS011;70799;48.000;10.584;2024-01-15T16:33:05;8.50;;;2.90;;
81336;SDS011;70799;48.000;10.584;2024-01-15T16:35:41;8.35;;;3.25;;
81336;SDS011;70799;48.000;10.584;2024-01-15T16:38:17;6.95;;;3.05;;
81336;SDS011;70799;48.000;10.584;2024-01-15T16:40:53;8.20;;;3.70;;